createdAt,value
2023-03-29T00:03:44.102Z,5.83
2023-03-29T00:08:46.094Z,7.03
2023-03-29T00:13:48.453Z,7.03
2023-03-29T00:18:50.615Z,8.53
2023-03-29T00:23:52.265Z,6.87
2023-03-29T00:28:53.936Z,5.77
2023-03-29T00:33:55.825Z,6.53
2023-03-29T00:38:57.475Z,5.40
2023-03-29T00:44:01.584Z,6.47
2023-03-29T00:49:12.820Z,11.23
2023-03-29T00:54:18.616Z,8.13
2023-03-29T00:59:24.729Z,8.00
2023-03-29T01:04:36.453Z,7.17
2023-03-29T01:09:42.144Z,8.40
2023-03-29T01:15:06.850Z,5.27
2023-03-29T01:20:17.318Z,6.23
2023-03-29T01:25:32.789Z,5.43
2023-03-29T01:30:46.721Z,7.70
2023-03-29T01:35:57.735Z,6.87
2023-03-29T01:40:59.808Z,6.60
2023-03-29T01:46:14.622Z,7.23
2023-03-29T01:51:24.872Z,5.93
2023-03-29T01:56:29.529Z,5.90
2023-03-29T02:01:40.756Z,8.27
2023-03-29T02:06:43.525Z,7.33
2023-03-29T02:11:47.288Z,6.00
2023-03-29T02:16:50.023Z,7.57
2023-03-29T02:22:07.821Z,8.38
2023-03-29T02:27:09.749Z,8.27
2023-03-29T02:32:20.409Z,7.10
2023-03-29T02:37:26.710Z,9.40
2023-03-29T02:42:31.443Z,5.70
2023-03-29T02:47:39.454Z,8.20
2023-03-29T02:52:47.211Z,6.65
2023-03-29T02:57:49.046Z,7.50
2023-03-29T03:02:52.215Z,6.70
2023-03-29T03:07:54.516Z,8.90
2023-03-29T03:12:56.458Z,9.02
2023-03-29T03:17:58.405Z,6.47
2023-03-29T03:23:01.200Z,10.43
2023-03-29T03:28:03.178Z,6.47
2023-03-29T03:33:05.046Z,10.80
2023-03-29T03:38:36.801Z,8.85
2023-03-29T03:43:42.463Z,9.38
2023-03-29T03:48:46.473Z,6.60
2023-03-29T03:54:04.990Z,8.87
2023-03-29T03:59:07.322Z,7.75
2023-03-29T04:04:30.963Z,7.63
2023-03-29T04:09:53.131Z,8.07
2023-03-29T04:15:20.344Z,7.53
2023-03-29T04:20:33.575Z,6.47
2023-03-29T04:25:36.310Z,7.47
2023-03-29T04:30:58.146Z,9.27
2023-03-29T04:36:11.456Z,5.35
2023-03-29T04:41:15.677Z,5.53
2023-03-29T04:46:17.756Z,6.63
2023-03-29T04:51:37.516Z,5.15
2023-03-29T04:56:40.112Z,5.90
2023-03-29T05:02:05.241Z,5.03
2023-03-29T05:07:07.636Z,7.85
2023-03-29T05:12:09.996Z,5.95
2023-03-29T05:17:27.487Z,8.15
2023-03-29T05:22:36.379Z,8.80
2023-03-29T05:27:38.276Z,6.68
2023-03-29T05:32:43.984Z,7.13
2023-03-29T05:37:49.771Z,10.20
2023-03-29T05:42:53.192Z,7.45
2023-03-29T05:47:55.701Z,7.80
2023-03-29T05:52:58.537Z,7.93
2023-03-29T05:58:01.175Z,7.88
2023-03-29T06:03:17.717Z,7.10
2023-03-29T06:08:23.484Z,7.68
2023-03-29T06:13:48.093Z,7.40
2023-03-29T06:18:52.383Z,9.77
2023-03-29T06:23:54.575Z,7.93
2023-03-29T06:28:58.304Z,7.55
2023-03-29T06:34:01.708Z,7.55
2023-03-29T06:39:27.058Z,8.13
2023-03-29T06:44:55.445Z,7.40
2023-03-29T06:49:58.826Z,7.60
2023-03-29T06:55:13.595Z,8.40
2023-03-29T07:00:19.686Z,6.82
2023-03-29T07:05:42.175Z,9.55
2023-03-29T07:10:52.883Z,7.07
2023-03-29T07:16:19.426Z,6.30
2023-03-29T07:21:24.235Z,7.05
2023-03-29T07:26:28.448Z,7.25
2023-03-29T07:31:35.907Z,6.53
2023-03-29T07:36:58.028Z,5.95
2023-03-29T07:41:59.986Z,9.40
2023-03-29T07:47:02.395Z,8.55
2023-03-29T07:52:04.771Z,6.85
2023-03-29T07:57:07.454Z,6.57
2023-03-29T08:02:16.168Z,7.25
2023-03-29T08:07:25.835Z,7.25
2023-03-29T08:12:30.156Z,7.65
2023-03-29T08:17:35.041Z,6.85
2023-03-29T08:22:38.532Z,7.00
2023-03-29T08:27:40.421Z,6.90
2023-03-29T08:32:47.733Z,7.05
2023-03-29T08:37:51.548Z,7.35
2023-03-29T08:43:12.499Z,6.18
2023-03-29T08:48:36.329Z,6.55
2023-03-29T08:53:48.512Z,7.50
2023-03-29T08:58:58.075Z,8.23
2023-03-29T09:04:09.154Z,10.73
2023-03-29T09:09:35.752Z,7.50
2023-03-29T09:15:06.818Z,7.13
2023-03-29T09:20:26.178Z,8.13
2023-03-29T09:25:52.521Z,9.00
2023-03-29T09:30:57.569Z,9.60
2023-03-29T09:36:03.193Z,9.55
2023-03-29T09:41:21.412Z,10.95
2023-03-29T09:46:42.101Z,12.70
2023-03-29T09:51:47.430Z,10.82
2023-03-29T09:56:49.736Z,11.77
2023-03-29T10:02:06.644Z,11.70
2023-03-29T10:07:20.643Z,12.73
2023-03-29T10:12:29.607Z,13.38
2023-03-29T10:17:40.376Z,13.82
2023-03-29T10:22:48.688Z,13.70
2023-03-29T10:27:50.764Z,13.95
2023-03-29T10:33:00.231Z,13.90
2023-03-29T10:38:07.787Z,15.40
2023-03-29T10:43:21.764Z,15.52
2023-03-29T10:48:31.394Z,15.48
2023-03-29T10:53:36.538Z,16.13
2023-03-29T10:59:14.563Z,16.50
2023-03-29T11:04:34.491Z,16.85
2023-03-29T11:09:49.918Z,16.52
2023-03-29T11:15:10.026Z,16.17
2023-03-29T11:20:18.340Z,17.23
2023-03-29T11:25:35.681Z,16.55
2023-03-29T11:31:28.309Z,16.13
2023-03-29T11:36:51.263Z,16.98
2023-03-29T11:41:57.362Z,17.25
2023-03-29T11:47:18.677Z,16.23
2023-03-29T11:52:28.287Z,16.85
2023-03-29T11:57:56.929Z,16.73
2023-03-29T12:03:22.020Z,16.50
2023-03-29T12:08:31.632Z,16.27
2023-03-29T12:13:56.582Z,17.27
2023-03-29T12:19:04.660Z,18.10
2023-03-29T12:24:06.749Z,18.67
2023-03-29T12:29:11.542Z,18.95
2023-03-29T12:34:22.354Z,18.27
2023-03-29T12:39:45.130Z,18.27
2023-03-29T12:45:06.371Z,18.48
2023-03-29T12:50:22.658Z,19.25
2023-03-29T12:55:34.796Z,19.00
2023-03-29T13:00:36.653Z,19.02
2023-03-29T13:05:38.576Z,18.70
2023-03-29T13:10:42.883Z,18.80
2023-03-29T13:15:46.245Z,16.75
2023-03-29T13:21:04.496Z,17.27
2023-03-29T13:26:31.607Z,17.17
2023-03-29T13:32:06.586Z,16.17
2023-03-29T13:37:34.168Z,16.75
2023-03-29T13:42:36.444Z,16.90
2023-03-29T13:47:54.850Z,17.45
2023-03-29T13:53:28.102Z,17.42
2023-03-29T13:58:49.895Z,17.20
2023-03-29T14:03:52.927Z,17.67
2023-03-29T14:08:55.472Z,17.42
2023-03-29T14:13:59.699Z,17.08
2023-03-29T14:19:13.516Z,16.48
2023-03-29T14:24:26.027Z,15.80
2023-03-29T14:29:32.918Z,16.10
2023-03-29T14:34:34.774Z,16.77
2023-03-29T14:39:37.631Z,17.02
2023-03-29T14:44:39.606Z,16.98
2023-03-29T14:49:41.916Z,17.35
2023-03-29T14:54:48.326Z,16.80
2023-03-29T15:00:14.699Z,16.60
2023-03-29T15:05:47.424Z,16.73
2023-03-29T15:10:49.563Z,16.98
2023-03-29T15:15:54.261Z,17.02
2023-03-29T15:20:56.218Z,15.18
2023-03-29T15:26:06.815Z,15.48
2023-03-29T15:31:14.562Z,15.48
2023-03-29T15:36:16.724Z,15.18
2023-03-29T15:41:18.638Z,15.00
2023-03-29T15:46:20.539Z,14.65
2023-03-29T15:51:22.411Z,15.05
2023-03-29T15:56:24.916Z,14.88
2023-03-29T16:01:36.680Z,14.52
2023-03-29T16:06:38.690Z,14.02
2023-03-29T16:11:42.434Z,14.27
2023-03-29T16:16:44.516Z,14.18
2023-03-29T16:21:46.387Z,13.70
2023-03-29T16:26:48.851Z,17.13
2023-03-29T16:31:52.980Z,29.80
2023-03-29T16:36:55.171Z,13.15
2023-03-29T16:41:56.971Z,20.08
2023-03-29T16:46:58.822Z,15.55
2023-03-29T16:52:01.022Z,17.35
2023-03-29T16:57:02.860Z,14.48
2023-03-29T17:02:04.786Z,12.60
2023-03-29T17:07:07.798Z,11.82
2023-03-29T17:12:09.658Z,11.70
2023-03-29T17:17:11.489Z,11.90
2023-03-29T17:22:13.341Z,15.15
2023-03-29T17:27:15.502Z,11.18
2023-03-29T17:32:17.327Z,11.18
2023-03-29T17:37:21.368Z,11.93
2023-03-29T17:42:23.206Z,12.40
2023-03-29T17:47:25.050Z,10.73
2023-03-29T17:52:27.232Z,10.50
2023-03-29T17:57:29.064Z,9.90
2023-03-29T18:02:31.011Z,9.48
2023-03-29T18:07:32.865Z,8.90
2023-03-29T18:12:34.679Z,7.85
2023-03-29T18:17:36.758Z,8.32
2023-03-29T18:22:40.088Z,7.90
2023-03-29T18:27:41.977Z,8.13
2023-03-29T18:32:43.946Z,8.25
2023-03-29T18:37:45.781Z,9.40
2023-03-29T18:42:47.575Z,9.15
2023-03-29T18:47:50.720Z,8.25
2023-03-29T18:52:52.710Z,8.43
2023-03-29T18:57:54.708Z,9.57
2023-03-29T19:02:56.647Z,19.15
2023-03-29T19:07:59.327Z,28.13
2023-03-29T19:13:01.154Z,13.38
2023-03-29T19:18:03.085Z,12.10
2023-03-29T19:23:05.060Z,9.60
2023-03-29T19:28:06.895Z,8.70
2023-03-29T19:33:08.781Z,8.70
2023-03-29T19:38:10.979Z,8.88
2023-03-29T19:43:19.432Z,8.93
2023-03-29T19:48:23.160Z,7.55
2023-03-29T19:53:27.129Z,8.52
2023-03-29T19:58:28.955Z,8.48
2023-03-29T20:03:34.048Z,7.68
2023-03-29T20:08:38.905Z,7.50
2023-03-29T20:13:42.610Z,7.35
2023-03-29T20:18:45.370Z,6.57
2023-03-29T20:23:47.497Z,5.65
2023-03-29T20:28:49.846Z,6.07
2023-03-29T20:33:51.659Z,5.63
2023-03-29T20:38:56.241Z,6.00
2023-03-29T20:43:58.604Z,5.60
2023-03-29T20:49:01.880Z,6.32
2023-03-29T20:54:05.818Z,6.25
2023-03-29T20:59:10.773Z,6.30
2023-03-29T21:04:13.108Z,7.65
2023-03-29T21:09:15.277Z,6.97
2023-03-29T21:14:21.327Z,8.10
2023-03-29T21:19:24.264Z,7.70
2023-03-29T21:24:26.228Z,7.95
2023-03-29T21:29:28.408Z,10.15
2023-03-29T21:34:30.469Z,7.60
2023-03-29T21:39:32.294Z,8.32
2023-03-29T21:44:34.553Z,7.30
2023-03-29T21:49:36.501Z,6.85
2023-03-29T21:54:38.315Z,8.65
2023-03-29T21:59:40.272Z,8.23
2023-03-29T22:04:42.090Z,6.82
2023-03-29T22:09:44.090Z,6.18
2023-03-29T22:14:45.981Z,6.05
2023-03-29T22:19:48.039Z,5.50
2023-03-29T22:24:55.298Z,7.57
2023-03-29T22:29:58.626Z,6.90
2023-03-29T22:35:00.466Z,4.75
2023-03-29T22:40:02.308Z,4.45
2023-03-29T22:45:05.188Z,4.65
2023-03-29T22:50:07.602Z,5.63
2023-03-29T22:55:09.584Z,5.30
2023-03-29T23:00:13.249Z,4.90
2023-03-29T23:05:15.196Z,4.70
2023-03-29T23:10:17.170Z,5.45
2023-03-29T23:15:22.920Z,6.40
2023-03-29T23:20:24.760Z,6.88
2023-03-29T23:25:27.615Z,7.07
2023-03-29T23:30:32.137Z,6.85
2023-03-29T23:35:33.990Z,11.38
2023-03-29T23:40:35.817Z,8.68
2023-03-29T23:45:37.668Z,8.35
2023-03-29T23:50:39.481Z,7.85
2023-03-29T23:55:42.094Z,8.82
